sensor_id;sensor_type;location;lat;lon;timestamp;P1;durP1;ratioP1;P2;durP2;ratioP2
15151;SDS011;7676;50.900;6.234;2022-08-19T00:00:30;14.97;;;13.77;;
15151;SDS011;7676;50.900;6.234;2022-08-19T00:05:32;14.63;;;13.50;;
15151;SDS011;7676;50.900;6.234;2022-08-19T00:10:35;17.30;;;16.00;;
15151;SDS011;7676;50.900;6.234;2022-08-19T00:15:37;17.57;;;16.17;;
15151;SDS011;7676;50.900;6.234;2022-08-19T00:20:40;18.27;;;16.70;;
15151;SDS011;7676;50.900;6.234;2022-08-19T00:25:42;17.87;;;16.37;;
15151;SDS011;7676;50.900;6.234;2022-08-19T00:30:49;19.07;;;17.57;;
15151;SDS011;7676;50.900;6.234;2022-08-19T00:35:54;19.23;;;17.70;;
15151;SDS011;7676;50.900;6.234;2022-08-19T00:40:57;19.30;;;17.70;;
15151;SDS011;7676;50.900;6.234;2022-08-19T00:46:00;18.80;;;17.10;;
15151;SDS011;7676;50.900;6.234;2022-08-19T00:51:06;17.80;;;16.30;;
15151;SDS011;7676;50.900;6.234;2022-08-19T00:56:08;15.90;;;14.53;;
15151;SDS011;7676;50.900;6.234;2022-08-19T01:01:11;17.70;;;16.27;;
15151;SDS011;7676;50.900;6.234;2022-08-19T01:06:15;15.37;;;14.10;;
15151;SDS011;7676;50.900;6.234;2022-08-19T01:11:21;17.63;;;16.10;;
15151;SDS011;7676;50.900;6.234;2022-08-19T01:16:24;17.93;;;16.40;;
15151;SDS011;7676;50.900;6.234;2022-08-19T01:26:40;17.10;;;15.50;;
15151;SDS011;7676;50.900;6.234;2022-08-19T01:31:44;17.87;;;16.27;;
15151;SDS011;7676;50.900;6.234;2022-08-19T01:36:47;16.73;;;15.33;;
15151;SDS011;7676;50.900;6.234;2022-08-19T01:41:50;16.33;;;14.93;;
15151;SDS011;7676;50.900;6.234;2022-08-19T01:46:56;18.30;;;16.70;;
15151;SDS011;7676;50.900;6.234;2022-08-19T01:51:59;18.43;;;16.83;;
15151;SDS011;7676;50.900;6.234;2022-08-19T01:57:07;19.93;;;18.23;;
15151;SDS011;7676;50.900;6.234;2022-08-19T02:02:12;19.57;;;17.97;;
15151;SDS011;7676;50.900;6.234;2022-08-19T02:07:15;20.17;;;18.47;;
15151;SDS011;7676;50.900;6.234;2022-08-19T02:12:22;18.40;;;16.90;;
15151;SDS011;7676;50.900;6.234;2022-08-19T02:17:24;21.27;;;19.57;;
15151;SDS011;7676;50.900;6.234;2022-08-19T02:22:26;20.67;;;18.87;;
15151;SDS011;7676;50.900;6.234;2022-08-19T02:27:29;20.47;;;18.83;;
15151;SDS011;7676;50.900;6.234;2022-08-19T02:32:31;21.30;;;19.40;;
15151;SDS011;7676;50.900;6.234;2022-08-19T02:37:44;21.83;;;20.00;;
15151;SDS011;7676;50.900;6.234;2022-08-19T02:43:06;18.03;;;16.53;;
15151;SDS011;7676;50.900;6.234;2022-08-19T02:48:10;23.13;;;21.20;;
15151;SDS011;7676;50.900;6.234;2022-08-19T02:53:23;21.33;;;19.60;;
15151;SDS011;7676;50.900;6.234;2022-08-19T02:58:28;24.17;;;22.20;;
15151;SDS011;7676;50.900;6.234;2022-08-19T03:03:30;24.30;;;22.23;;
15151;SDS011;7676;50.900;6.234;2022-08-19T03:08:33;24.83;;;22.53;;
15151;SDS011;7676;50.900;6.234;2022-08-19T03:13:36;23.87;;;21.77;;
15151;SDS011;7676;50.900;6.234;2022-08-19T03:18:38;23.93;;;21.87;;
15151;SDS011;7676;50.900;6.234;2022-08-19T03:23:41;23.60;;;21.60;;
15151;SDS011;7676;50.900;6.234;2022-08-19T03:28:43;24.73;;;22.43;;
15151;SDS011;7676;50.900;6.234;2022-08-19T03:33:59;25.50;;;23.10;;
15151;SDS011;7676;50.900;6.234;2022-08-19T03:39:01;24.73;;;22.63;;
15151;SDS011;7676;50.900;6.234;2022-08-19T03:44:04;24.33;;;22.13;;
15151;SDS011;7676;50.900;6.234;2022-08-19T03:49:14;25.03;;;22.83;;
15151;SDS011;7676;50.900;6.234;2022-08-19T03:54:20;25.00;;;22.80;;
15151;SDS011;7676;50.900;6.234;2022-08-19T03:59:29;26.67;;;24.27;;
15151;SDS011;7676;50.900;6.234;2022-08-19T04:04:34;27.80;;;25.33;;
15151;SDS011;7676;50.900;6.234;2022-08-19T04:09:37;27.63;;;25.13;;
15151;SDS011;7676;50.900;6.234;2022-08-19T04:14:39;30.80;;;28.10;;
15151;SDS011;7676;50.900;6.234;2022-08-19T04:19:42;30.37;;;27.53;;
15151;SDS011;7676;50.900;6.234;2022-08-19T04:24:45;30.17;;;27.50;;
15151;SDS011;7676;50.900;6.234;2022-08-19T04:29:47;27.87;;;25.13;;
15151;SDS011;7676;50.900;6.234;2022-08-19T04:34:49;29.57;;;26.67;;
15151;SDS011;7676;50.900;6.234;2022-08-19T04:40:11;29.77;;;27.07;;
15151;SDS011;7676;50.900;6.234;2022-08-19T04:45:32;31.67;;;28.60;;
15151;SDS011;7676;50.900;6.234;2022-08-19T04:50:41;32.97;;;29.70;;
15151;SDS011;7676;50.900;6.234;2022-08-19T04:55:44;33.77;;;30.40;;
15151;SDS011;7676;50.900;6.234;2022-08-19T05:00:46;32.93;;;29.63;;
15151;SDS011;7676;50.900;6.234;2022-08-19T05:05:49;35.60;;;32.00;;
15151;SDS011;7676;50.900;6.234;2022-08-19T05:10:51;37.40;;;33.50;;
15151;SDS011;7676;50.900;6.234;2022-08-19T05:15:55;37.30;;;33.27;;
15151;SDS011;7676;50.900;6.234;2022-08-19T05:20:58;38.53;;;34.47;;
15151;SDS011;7676;50.900;6.234;2022-08-19T05:26:19;40.30;;;36.27;;
15151;SDS011;7676;50.900;6.234;2022-08-19T05:31:21;39.17;;;35.13;;
15151;SDS011;7676;50.900;6.234;2022-08-19T05:36:24;40.07;;;35.73;;
15151;SDS011;7676;50.900;6.234;2022-08-19T05:41:28;40.57;;;36.27;;
15151;SDS011;7676;50.900;6.234;2022-08-19T05:46:32;41.07;;;36.77;;
15151;SDS011;7676;50.900;6.234;2022-08-19T05:51:35;42.13;;;37.83;;
15151;SDS011;7676;50.900;6.234;2022-08-19T05:56:40;39.77;;;35.57;;
15151;SDS011;7676;50.900;6.234;2022-08-19T06:01:44;37.13;;;33.27;;
15151;SDS011;7676;50.900;6.234;2022-08-19T06:06:48;37.50;;;33.57;;
15151;SDS011;7676;50.900;6.234;2022-08-19T06:11:56;38.27;;;34.27;;
15151;SDS011;7676;50.900;6.234;2022-08-19T06:17:01;36.97;;;33.20;;
15151;SDS011;7676;50.900;6.234;2022-08-19T06:22:08;37.33;;;33.37;;
15151;SDS011;7676;50.900;6.234;2022-08-19T06:27:12;36.67;;;32.97;;
15151;SDS011;7676;50.900;6.234;2022-08-19T06:32:15;38.17;;;33.50;;
15151;SDS011;7676;50.900;6.234;2022-08-19T06:37:20;38.03;;;33.93;;
15151;SDS011;7676;50.900;6.234;2022-08-19T06:42:23;37.27;;;32.80;;
15151;SDS011;7676;50.900;6.234;2022-08-19T06:47:25;34.90;;;31.20;;
15151;SDS011;7676;50.900;6.234;2022-08-19T06:52:30;32.73;;;29.23;;
15151;SDS011;7676;50.900;6.234;2022-08-19T06:57:37;30.47;;;27.33;;
15151;SDS011;7676;50.900;6.234;2022-08-19T07:02:40;26.77;;;23.93;;
15151;SDS011;7676;50.900;6.234;2022-08-19T07:07:51;27.13;;;24.33;;
15151;SDS011;7676;50.900;6.234;2022-08-19T07:12:53;26.47;;;23.77;;
15151;SDS011;7676;50.900;6.234;2022-08-19T07:17:56;22.90;;;20.63;;
15151;SDS011;7676;50.900;6.234;2022-08-19T07:22:58;23.40;;;21.07;;
15151;SDS011;7676;50.900;6.234;2022-08-19T07:28:01;23.30;;;20.90;;
15151;SDS011;7676;50.900;6.234;2022-08-19T07:33:04;19.90;;;17.87;;
15151;SDS011;7676;50.900;6.234;2022-08-19T07:38:06;21.90;;;19.53;;
15151;SDS011;7676;50.900;6.234;2022-08-19T07:43:09;21.63;;;19.33;;
15151;SDS011;7676;50.900;6.234;2022-08-19T07:48:17;22.50;;;20.17;;
15151;SDS011;7676;50.900;6.234;2022-08-19T07:53:21;22.77;;;20.37;;
15151;SDS011;7676;50.900;6.234;2022-08-19T07:58:24;24.37;;;21.80;;
15151;SDS011;7676;50.900;6.234;2022-08-19T08:03:27;27.73;;;24.73;;
15151;SDS011;7676;50.900;6.234;2022-08-19T08:08:56;30.20;;;27.03;;
15151;SDS011;7676;50.900;6.234;2022-08-19T08:14:18;27.27;;;24.43;;
15151;SDS011;7676;50.900;6.234;2022-08-19T08:19:35;23.90;;;21.43;;
15151;SDS011;7676;50.900;6.234;2022-08-19T08:24:39;23.60;;;21.20;;
15151;SDS011;7676;50.900;6.234;2022-08-19T08:29:41;24.07;;;21.30;;
15151;SDS011;7676;50.900;6.234;2022-08-19T08:34:44;21.20;;;19.10;;
15151;SDS011;7676;50.900;6.234;2022-08-19T08:39:53;18.77;;;16.83;;
15151;SDS011;7676;50.900;6.234;2022-08-19T08:44:58;19.53;;;17.63;;
15151;SDS011;7676;50.900;6.234;2022-08-19T08:50:13;20.03;;;17.93;;
15151;SDS011;7676;50.900;6.234;2022-08-19T08:55:26;19.13;;;17.23;;
15151;SDS011;7676;50.900;6.234;2022-08-19T09:00:39;18.33;;;16.57;;
15151;SDS011;7676;50.900;6.234;2022-08-19T09:05:47;20.97;;;18.87;;
15151;SDS011;7676;50.900;6.234;2022-08-19T09:11:04;16.07;;;14.50;;
15151;SDS011;7676;50.900;6.234;2022-08-19T09:16:16;17.47;;;15.73;;
15151;SDS011;7676;50.900;6.234;2022-08-19T09:21:28;16.67;;;15.03;;
15151;SDS011;7676;50.900;6.234;2022-08-19T09:26:34;15.93;;;14.27;;
15151;SDS011;7676;50.900;6.234;2022-08-19T09:31:53;15.53;;;13.33;;
15151;SDS011;7676;50.900;6.234;2022-08-19T09:36:55;14.63;;;13.23;;
15151;SDS011;7676;50.900;6.234;2022-08-19T09:41:59;17.20;;;15.50;;
15151;SDS011;7676;50.900;6.234;2022-08-19T09:47:02;18.60;;;16.60;;
15151;SDS011;7676;50.900;6.234;2022-08-19T09:52:06;16.13;;;14.43;;
15151;SDS011;7676;50.900;6.234;2022-08-19T09:57:14;16.10;;;14.50;;
15151;SDS011;7676;50.900;6.234;2022-08-19T10:02:18;17.93;;;16.17;;
15151;SDS011;7676;50.900;6.234;2022-08-19T10:07:23;19.73;;;17.87;;
15151;SDS011;7676;50.900;6.234;2022-08-19T10:12:37;22.27;;;20.07;;
15151;SDS011;7676;50.900;6.234;2022-08-19T10:17:39;21.97;;;19.73;;
15151;SDS011;7676;50.900;6.234;2022-08-19T10:22:49;19.13;;;17.23;;
15151;SDS011;7676;50.900;6.234;2022-08-19T10:27:54;21.83;;;19.63;;
15151;SDS011;7676;50.900;6.234;2022-08-19T10:32:56;19.37;;;17.27;;
15151;SDS011;7676;50.900;6.234;2022-08-19T10:37:59;19.27;;;17.33;;
15151;SDS011;7676;50.900;6.234;2022-08-19T10:43:04;17.30;;;15.60;;
15151;SDS011;7676;50.900;6.234;2022-08-19T10:48:07;16.23;;;14.70;;
15151;SDS011;7676;50.900;6.234;2022-08-19T10:53:16;15.40;;;13.80;;
15151;SDS011;7676;50.900;6.234;2022-08-19T10:58:19;16.60;;;14.10;;
15151;SDS011;7676;50.900;6.234;2022-08-19T11:03:24;18.40;;;16.47;;
15151;SDS011;7676;50.900;6.234;2022-08-19T11:08:28;14.60;;;13.10;;
15151;SDS011;7676;50.900;6.234;2022-08-19T11:13:36;17.88;;;16.13;;
15151;SDS011;7676;50.900;6.234;2022-08-19T11:18:41;17.27;;;15.47;;
15151;SDS011;7676;50.900;6.234;2022-08-19T11:23:51;16.23;;;14.35;;
15151;SDS011;7676;50.900;6.234;2022-08-19T11:28:56;18.90;;;16.73;;
15151;SDS011;7676;50.900;6.234;2022-08-19T11:34:00;16.27;;;14.57;;
15151;SDS011;7676;50.900;6.234;2022-08-19T11:39:06;14.75;;;13.27;;
15151;SDS011;7676;50.900;6.234;2022-08-19T11:44:13;14.60;;;13.30;;
15151;SDS011;7676;50.900;6.234;2022-08-19T11:49:17;17.73;;;15.90;;
15151;SDS011;7676;50.900;6.234;2022-08-19T11:54:21;16.02;;;14.48;;
15151;SDS011;7676;50.900;6.234;2022-08-19T11:59:23;16.77;;;14.95;;
15151;SDS011;7676;50.900;6.234;2022-08-19T12:04:25;16.45;;;14.90;;
15151;SDS011;7676;50.900;6.234;2022-08-19T12:09:27;13.98;;;12.68;;
15151;SDS011;7676;50.900;6.234;2022-08-19T12:14:31;14.93;;;13.48;;
15151;SDS011;7676;50.900;6.234;2022-08-19T12:19:35;13.55;;;12.10;;
15151;SDS011;7676;50.900;6.234;2022-08-19T12:24:38;12.88;;;11.68;;
15151;SDS011;7676;50.900;6.234;2022-08-19T12:29:40;10.18;;;9.18;;
15151;SDS011;7676;50.900;6.234;2022-08-19T12:34:43;8.52;;;7.55;;
15151;SDS011;7676;50.900;6.234;2022-08-19T12:39:46;7.70;;;7.10;;
15151;SDS011;7676;50.900;6.234;2022-08-19T12:44:48;6.90;;;6.18;;
15151;SDS011;7676;50.900;6.234;2022-08-19T12:49:51;6.07;;;5.00;;
15151;SDS011;7676;50.900;6.234;2022-08-19T12:54:56;4.10;;;3.80;;
15151;SDS011;7676;50.900;6.234;2022-08-19T13:00:04;4.40;;;3.45;;
15151;SDS011;7676;50.900;6.234;2022-08-19T13:05:21;3.42;;;3.13;;
15151;SDS011;7676;50.900;6.234;2022-08-19T13:10:32;3.72;;;3.33;;
15151;SDS011;7676;50.900;6.234;2022-08-19T13:15:38;3.60;;;3.22;;
15151;SDS011;7676;50.900;6.234;2022-08-19T13:20:42;3.25;;;3.00;;
15151;SDS011;7676;50.900;6.234;2022-08-19T13:26:00;2.90;;;2.70;;
15151;SDS011;7676;50.900;6.234;2022-08-19T13:31:06;4.07;;;3.60;;
15151;SDS011;7676;50.900;6.234;2022-08-19T13:36:27;4.00;;;3.00;;
15151;SDS011;7676;50.900;6.234;2022-08-19T13:41:29;3.15;;;2.90;;
15151;SDS011;7676;50.900;6.234;2022-08-19T13:46:32;3.35;;;2.72;;
15151;SDS011;7676;50.900;6.234;2022-08-19T13:51:34;3.63;;;2.80;;
15151;SDS011;7676;50.900;6.234;2022-08-19T13:56:43;3.05;;;2.70;;
15151;SDS011;7676;50.900;6.234;2022-08-19T14:01:47;3.42;;;2.80;;
15151;SDS011;7676;50.900;6.234;2022-08-19T14:06:49;3.17;;;2.78;;
15151;SDS011;7676;50.900;6.234;2022-08-19T14:11:51;2.78;;;2.25;;
15151;SDS011;7676;50.900;6.234;2022-08-19T14:16:53;2.75;;;2.10;;
15151;SDS011;7676;50.900;6.234;2022-08-19T14:21:56;2.53;;;1.77;;
15151;SDS011;7676;50.900;6.234;2022-08-19T14:26:59;2.83;;;1.95;;
15151;SDS011;7676;50.900;6.234;2022-08-19T14:32:01;2.50;;;1.98;;
15151;SDS011;7676;50.900;6.234;2022-08-19T14:37:04;1.65;;;1.55;;
15151;SDS011;7676;50.900;6.234;2022-08-19T14:42:08;2.13;;;1.90;;
15151;SDS011;7676;50.900;6.234;2022-08-19T14:47:12;2.13;;;1.83;;
15151;SDS011;7676;50.900;6.234;2022-08-19T14:52:15;2.55;;;1.58;;
15151;SDS011;7676;50.900;6.234;2022-08-19T14:57:18;1.85;;;1.75;;
15151;SDS011;7676;50.900;6.234;2022-08-19T15:02:21;2.60;;;1.90;;
15151;SDS011;7676;50.900;6.234;2022-08-19T15:07:36;2.00;;;1.85;;
15151;SDS011;7676;50.900;6.234;2022-08-19T15:12:40;3.15;;;2.22;;
15151;SDS011;7676;50.900;6.234;2022-08-19T15:17:44;2.60;;;2.20;;
15151;SDS011;7676;50.900;6.234;2022-08-19T15:22:48;2.28;;;2.05;;
15151;SDS011;7676;50.900;6.234;2022-08-19T15:27:50;3.38;;;2.17;;
15151;SDS011;7676;50.900;6.234;2022-08-19T15:32:55;2.85;;;2.15;;
15151;SDS011;7676;50.900;6.234;2022-08-19T15:37:59;3.42;;;2.22;;
15151;SDS011;7676;50.900;6.234;2022-08-19T15:43:02;3.25;;;2.20;;
15151;SDS011;7676;50.900;6.234;2022-08-19T15:48:04;2.50;;;2.10;;
15151;SDS011;7676;50.900;6.234;2022-08-19T15:53:08;4.15;;;2.25;;
15151;SDS011;7676;50.900;6.234;2022-08-19T15:58:12;2.13;;;1.40;;
15151;SDS011;7676;50.900;6.234;2022-08-19T16:03:34;2.13;;;1.80;;
15151;SDS011;7676;50.900;6.234;2022-08-19T16:08:58;1.80;;;1.70;;
15151;SDS011;7676;50.900;6.234;2022-08-19T16:14:02;2.58;;;1.80;;
15151;SDS011;7676;50.900;6.234;2022-08-19T16:19:06;2.97;;;1.83;;
15151;SDS011;7676;50.900;6.234;2022-08-19T16:24:13;2.15;;;1.88;;
15151;SDS011;7676;50.900;6.234;2022-08-19T16:29:19;1.90;;;1.67;;
15151;SDS011;7676;50.900;6.234;2022-08-19T16:34:40;2.25;;;1.50;;
15151;SDS011;7676;50.900;6.234;2022-08-19T16:39:43;1.90;;;1.80;;
15151;SDS011;7676;50.900;6.234;2022-08-19T16:44:45;2.15;;;1.80;;
15151;SDS011;7676;50.900;6.234;2022-08-19T16:49:47;2.33;;;1.70;;
15151;SDS011;7676;50.900;6.234;2022-08-19T16:54:55;3.17;;;2.33;;
15151;SDS011;7676;50.900;6.234;2022-08-19T16:59:58;2.60;;;2.40;;
15151;SDS011;7676;50.900;6.234;2022-08-19T17:05:00;2.97;;;2.67;;
15151;SDS011;7676;50.900;6.234;2022-08-19T17:10:03;3.47;;;3.17;;
15151;SDS011;7676;50.900;6.234;2022-08-19T17:15:06;3.05;;;2.85;;
15151;SDS011;7676;50.900;6.234;2022-08-19T17:20:09;3.53;;;3.23;;
15151;SDS011;7676;50.900;6.234;2022-08-19T17:25:11;3.60;;;3.00;;
15151;SDS011;7676;50.900;6.234;2022-08-19T17:30:14;3.20;;;2.90;;
15151;SDS011;7676;50.900;6.234;2022-08-19T17:35:16;4.05;;;3.25;;
15151;SDS011;7676;50.900;6.234;2022-08-19T17:40:25;3.50;;;2.90;;
15151;SDS011;7676;50.900;6.234;2022-08-19T17:45:30;2.97;;;2.77;;
15151;SDS011;7676;50.900;6.234;2022-08-19T17:50:33;4.60;;;2.57;;
15151;SDS011;7676;50.900;6.234;2022-08-19T17:55:36;3.53;;;2.43;;
15151;SDS011;7676;50.900;6.234;2022-08-19T18:00:39;2.90;;;2.60;;
15151;SDS011;7676;50.900;6.234;2022-08-19T18:05:55;2.47;;;2.00;;
15151;SDS011;7676;50.900;6.234;2022-08-19T18:10:58;1.97;;;1.83;;
15151;SDS011;7676;50.900;6.234;2022-08-19T18:16:03;2.67;;;2.10;;
15151;SDS011;7676;50.900;6.234;2022-08-19T18:21:11;2.03;;;1.93;;
15151;SDS011;7676;50.900;6.234;2022-08-19T18:26:14;2.33;;;2.13;;
15151;SDS011;7676;50.900;6.234;2022-08-19T18:31:16;2.00;;;1.87;;
15151;SDS011;7676;50.900;6.234;2022-08-19T18:36:19;1.80;;;1.70;;
15151;SDS011;7676;50.900;6.234;2022-08-19T18:41:41;2.17;;;1.70;;
15151;SDS011;7676;50.900;6.234;2022-08-19T18:47:02;3.23;;;1.87;;
15151;SDS011;7676;50.900;6.234;2022-08-19T18:52:23;2.40;;;2.03;;
15151;SDS011;7676;50.900;6.234;2022-08-19T18:57:27;2.43;;;1.93;;
15151;SDS011;7676;50.900;6.234;2022-08-19T19:02:34;2.03;;;1.30;;
15151;SDS011;7676;50.900;6.234;2022-08-19T19:07:40;1.67;;;1.57;;
15151;SDS011;7676;50.900;6.234;2022-08-19T19:12:42;2.20;;;1.40;;
15151;SDS011;7676;50.900;6.234;2022-08-19T19:17:48;1.50;;;1.40;;
15151;SDS011;7676;50.900;6.234;2022-08-19T19:22:50;2.63;;;1.20;;
15151;SDS011;7676;50.900;6.234;2022-08-19T19:27:56;1.87;;;1.30;;
15151;SDS011;7676;50.900;6.234;2022-08-19T19:32:59;1.87;;;1.50;;
15151;SDS011;7676;50.900;6.234;2022-08-19T19:38:02;1.83;;;1.73;;
15151;SDS011;7676;50.900;6.234;2022-08-19T19:43:04;1.60;;;1.40;;
15151;SDS011;7676;50.900;6.234;2022-08-19T19:48:07;1.97;;;1.70;;
15151;SDS011;7676;50.900;6.234;2022-08-19T19:53:10;2.97;;;1.70;;
15151;SDS011;7676;50.900;6.234;2022-08-19T19:58:15;2.37;;;2.10;;
15151;SDS011;7676;50.900;6.234;2022-08-19T20:03:24;2.63;;;2.07;;
15151;SDS011;7676;50.900;6.234;2022-08-19T20:08:27;3.30;;;2.57;;
15151;SDS011;7676;50.900;6.234;2022-08-19T20:13:47;3.60;;;2.93;;
15151;SDS011;7676;50.900;6.234;2022-08-19T20:18:50;2.30;;;2.10;;
15151;SDS011;7676;50.900;6.234;2022-08-19T20:23:57;4.27;;;2.83;;
15151;SDS011;7676;50.900;6.234;2022-08-19T20:29:10;3.60;;;2.93;;
15151;SDS011;7676;50.900;6.234;2022-08-19T20:34:33;2.77;;;2.50;;
15151;SDS011;7676;50.900;6.234;2022-08-19T20:39:36;3.83;;;2.50;;
15151;SDS011;7676;50.900;6.234;2022-08-19T20:44:39;2.70;;;2.50;;
15151;SDS011;7676;50.900;6.234;2022-08-19T20:49:41;3.13;;;2.90;;
15151;SDS011;7676;50.900;6.234;2022-08-19T20:54:43;2.63;;;2.43;;
15151;SDS011;7676;50.900;6.234;2022-08-19T20:59:45;2.63;;;2.43;;
15151;SDS011;7676;50.900;6.234;2022-08-19T21:04:48;3.07;;;2.87;;
15151;SDS011;7676;50.900;6.234;2022-08-19T21:09:51;3.33;;;2.63;;
15151;SDS011;7676;50.900;6.234;2022-08-19T21:14:53;3.20;;;2.90;;
15151;SDS011;7676;50.900;6.234;2022-08-19T21:19:56;3.07;;;2.77;;
15151;SDS011;7676;50.900;6.234;2022-08-19T21:24:58;2.90;;;2.67;;
15151;SDS011;7676;50.900;6.234;2022-08-19T21:30:00;2.60;;;2.40;;
15151;SDS011;7676;50.900;6.234;2022-08-19T21:35:04;3.97;;;3.00;;
15151;SDS011;7676;50.900;6.234;2022-08-19T21:40:07;2.93;;;2.63;;
15151;SDS011;7676;50.900;6.234;2022-08-19T21:45:10;3.27;;;2.93;;
15151;SDS011;7676;50.900;6.234;2022-08-19T21:50:15;2.83;;;2.57;;
15151;SDS011;7676;50.900;6.234;2022-08-19T21:55:18;3.90;;;2.60;;
15151;SDS011;7676;50.900;6.234;2022-08-19T22:00:21;3.00;;;2.60;;
15151;SDS011;7676;50.900;6.234;2022-08-19T22:05:25;3.10;;;2.33;;
15151;SDS011;7676;50.900;6.234;2022-08-19T22:10:31;2.80;;;2.57;;
15151;SDS011;7676;50.900;6.234;2022-08-19T22:15:34;2.80;;;2.33;;
15151;SDS011;7676;50.900;6.234;2022-08-19T22:20:36;2.57;;;2.20;;
15151;SDS011;7676;50.900;6.234;2022-08-19T22:25:39;3.23;;;3.03;;
15151;SDS011;7676;50.900;6.234;2022-08-19T22:30:44;3.13;;;2.87;;
15151;SDS011;7676;50.900;6.234;2022-08-19T22:35:50;5.23;;;3.47;;
15151;SDS011;7676;50.900;6.234;2022-08-19T22:40:53;2.57;;;2.37;;
15151;SDS011;7676;50.900;6.234;2022-08-19T22:45:58;3.37;;;3.07;;
15151;SDS011;7676;50.900;6.234;2022-08-19T22:51:00;4.27;;;3.53;;
15151;SDS011;7676;50.900;6.234;2022-08-19T22:56:21;2.90;;;2.70;;
15151;SDS011;7676;50.900;6.234;2022-08-19T23:01:23;3.13;;;2.30;;
15151;SDS011;7676;50.900;6.234;2022-08-19T23:06:31;4.00;;;2.97;;
15151;SDS011;7676;50.900;6.234;2022-08-19T23:11:36;4.90;;;3.00;;
15151;SDS011;7676;50.900;6.234;2022-08-19T23:16:43;2.97;;;2.77;;
15151;SDS011;7676;50.900;6.234;2022-08-19T23:21:51;4.00;;;3.00;;
15151;SDS011;7676;50.900;6.234;2022-08-19T23:26:54;3.33;;;2.87;;
15151;SDS011;7676;50.900;6.234;2022-08-19T23:32:15;3.23;;;2.90;;
15151;SDS011;7676;50.900;6.234;2022-08-19T23:37:19;4.83;;;3.27;;
15151;SDS011;7676;50.900;6.234;2022-08-19T23:42:22;3.10;;;2.47;;
15151;SDS011;7676;50.900;6.234;2022-08-19T23:47:26;2.53;;;2.33;;
15151;SDS011;7676;50.900;6.234;2022-08-19T23:52:31;2.50;;;2.07;;
15151;SDS011;7676;50.900;6.234;2022-08-19T23:57:43;3.00;;;2.73;;
